Time;durP1;ratioP1;P1;durP2;ratioP2;P2;SDS_P1;SDS_P2;PMS_P1;PMS_P2;Temp;Humidity;BMP_temperature;BMP_pressure;BME280_temperature;BME280_humidity;BME280_pressure;Samples;Min_cycle;Max_cycle;Signal;HPM_P1;HPM_P2
2023/12/21 00:01:09;;;;;;;2.25;1.40;;;4.10;99.90;;;;;;5063302;28;20093;-32
2023/12/21 00:03:35;;;;;;;1.00;1.00;;;4.10;99.90;;;;;;5057280;28;20032;-33
2023/12/21 00:06:00;;;;;;;1.02;1.02;;;4.10;99.90;;;;;;5065957;28;20032;-33
2023/12/21 00:08:26;;;;;;;1.27;1.17;;;4.10;99.90;;;;;;5065547;28;20025;-38
2023/12/21 00:10:52;;;;;;;1.67;0.98;;;4.10;99.90;;;;;;5065601;28;20731;-38
2023/12/21 00:13:17;;;;;;;1.58;1.27;;;4.10;99.90;;;;;;5066255;28;20579;-39
2023/12/21 00:15:43;;;;;;;1.25;1.25;;;4.10;99.90;;;;;;5065280;28;20082;-37
2023/12/21 00:18:09;;;;;;;1.10;1.10;;;4.10;99.90;;;;;;5066836;28;20036;-42
2023/12/21 00:20:35;;;;;;;0.90;0.80;;;4.10;99.90;;;;;;5064056;28;20157;-40
2023/12/21 00:23:01;;;;;;;1.05;1.05;;;4.20;99.90;;;;;;5062112;28;20492;-39
2023/12/21 00:25:26;;;;;;;1.52;1.15;;;4.20;99.90;;;;;;5065750;28;20032;-38
2023/12/21 00:27:52;;;;;;;1.13;1.05;;;4.20;99.90;;;;;;5065893;28;20511;-41
2023/12/21 00:30:18;;;;;;;1.50;1.30;;;4.20;99.90;;;;;;5066241;28;20077;-38
2023/12/21 00:32:43;;;;;;;1.33;1.23;;;4.20;99.90;;;;;;5064363;28;20060;-36
2023/12/21 00:35:09;;;;;;;2.95;1.38;;;4.20;99.90;;;;;;5065745;28;20021;-42
2023/12/21 00:37:36;;;;;;;1.23;1.13;;;4.20;99.90;;;;;;5068992;28;20077;-39
2023/12/21 00:40:03;;;;;;;1.25;1.15;;;4.20;99.90;;;;;;5067073;28;20031;-33
2023/12/21 00:42:35;;;;;;;1.30;1.20;;;4.30;99.90;;;;;;5066817;28;20028;-36
2023/12/21 00:45:01;;;;;;;1.30;1.20;;;4.30;99.90;;;;;;5065765;28;20032;-37
2023/12/21 00:47:26;;;;;;;1.50;1.38;;;4.30;99.90;;;;;;5064605;28;20024;-41
2023/12/21 00:49:52;;;;;;;1.20;1.20;;;4.30;99.90;;;;;;5066247;28;20751;-41
2023/12/21 00:52:21;;;;;;;1.30;1.20;;;4.30;99.90;;;;;;5067304;28;20029;-40
2023/12/21 00:54:46;;;;;;;;;;;4.30;99.90;;;;;;5067206;28;20146;-40
2023/12/21 00:57:12;;;;;;;1.52;1.42;;;4.30;99.90;;;;;;5065571;28;19999;-41
2023/12/21 00:59:37;;;;;;;1.30;1.20;;;4.30;99.90;;;;;;5069108;28;20025;-41
2023/12/21 01:02:03;;;;;;;2.25;1.10;;;4.40;99.90;;;;;;5068036;28;20433;-40
2023/12/21 01:04:29;;;;;;;2.60;1.48;;;4.40;99.90;;;;;;5066190;28;20044;-41
2023/12/21 01:06:54;;;;;;;1.08;1.00;;;4.40;99.90;;;;;;5067162;28;20099;-41
2023/12/21 01:09:20;;;;;;;2.22;1.58;;;4.30;99.90;;;;;;5065923;28;20040;-42
2023/12/21 01:11:45;;;;;;;1.10;1.10;;;4.30;99.90;;;;;;5066743;28;20669;-39
2023/12/21 01:14:11;;;;;;;1.20;1.20;;;4.30;99.90;;;;;;5067418;28;20047;-40
2023/12/21 01:16:36;;;;;;;2.35;1.30;;;4.30;99.90;;;;;;5066981;28;20032;-41
2023/12/21 01:19:02;;;;;;;1.50;1.40;;;4.30;99.90;;;;;;5065115;28;20033;-37
2023/12/21 01:21:28;;;;;;;1.20;1.10;;;4.30;99.90;;;;;;5066321;28;20097;-39
2023/12/21 01:23:54;;;;;;;1.17;1.17;;;4.30;99.90;;;;;;5064220;28;20483;-38
2023/12/21 01:26:20;;;;;;;1.05;1.05;;;4.30;99.90;;;;;;5067031;28;20032;-39
2023/12/21 01:28:46;;;;;;;1.38;1.27;;;4.30;99.90;;;;;;5064694;28;20094;-36
2023/12/21 01:31:11;;;;;;;1.77;1.50;;;4.30;99.90;;;;;;5064284;28;20025;-34
2023/12/21 01:33:37;;;;;;;2.67;1.67;;;4.30;99.90;;;;;;5065354;28;20024;-34
2023/12/21 01:36:07;;;;;;;1.58;1.20;;;4.30;99.90;;;;;;5062840;28;20025;-32
2023/12/21 01:38:33;;;;;;;1.40;1.30;;;4.20;99.90;;;;;;5065683;28;20033;-35
2023/12/21 01:40:59;;;;;;;1.30;1.30;;;4.20;99.90;;;;;;5064268;28;20037;-35
2023/12/21 01:43:25;;;;;;;1.98;1.20;;;4.20;99.90;;;;;;5065424;28;20041;-32
2023/12/21 01:45:52;;;;;;;1.63;1.23;;;4.20;99.90;;;;;;5066931;28;20044;-36
2023/12/21 01:48:18;;;;;;;1.38;1.27;;;4.20;99.90;;;;;;5065781;28;20028;-33
2023/12/21 01:50:44;;;;;;;1.30;1.20;;;4.20;99.90;;;;;;5065638;28;20039;-36
2023/12/21 01:53:11;;;;;;;1.52;1.42;;;4.20;99.90;;;;;;5062027;28;20021;-35
2023/12/21 01:55:38;;;;;;;1.70;1.20;;;4.20;99.90;;;;;;5067256;28;20559;-34
2023/12/21 01:58:04;;;;;;;1.23;1.10;;;4.20;99.90;;;;;;5062241;28;20057;-35
2023/12/21 02:00:31;;;;;;;1.75;1.20;;;4.20;99.90;;;;;;5061257;28;20067;-31
2023/12/21 02:02:56;;;;;;;1.20;1.20;;;4.20;99.90;;;;;;5065363;28;20111;-35
2023/12/21 02:05:22;;;;;;;1.73;1.10;;;4.10;99.90;;;;;;5064072;28;20546;-31
2023/12/21 02:07:48;;;;;;;1.60;1.45;;;4.10;99.90;;;;;;5059935;28;20029;-32
2023/12/21 02:10:14;;;;;;;1.10;1.10;;;4.20;99.90;;;;;;5065290;28;20115;-33
2023/12/21 02:12:39;;;;;;;1.60;1.50;;;4.10;99.90;;;;;;5066025;28;20146;-33
2023/12/21 02:15:07;;;;;;;1.33;1.33;;;4.10;99.90;;;;;;5067343;28;20031;-33
2023/12/21 02:17:33;;;;;;;1.33;1.23;;;4.10;99.90;;;;;;5064452;28;20052;-35
2023/12/21 02:19:59;;;;;;;1.38;1.38;;;4.10;99.90;;;;;;5065484;28;20033;-31
2023/12/21 02:22:28;;;;;;;1.45;1.35;;;4.10;99.90;;;;;;5066726;28;20086;-34
2023/12/21 02:24:55;;;;;;;1.40;1.40;;;4.10;99.90;;;;;;5062428;28;20028;-36
2023/12/21 02:27:21;;;;;;;1.15;1.10;;;4.00;99.90;;;;;;5059473;28;20075;-33
2023/12/21 02:29:46;;;;;;;1.58;1.20;;;4.00;99.90;;;;;;5064111;28;20558;-40
2023/12/21 02:32:12;;;;;;;1.40;1.35;;;3.90;99.90;;;;;;5062798;28;20062;-39
2023/12/21 02:34:37;;;;;;;1.50;1.40;;;3.90;99.90;;;;;;5062656;28;20028;-39
2023/12/21 02:37:03;;;;;;;1.73;1.40;;;3.80;99.90;;;;;;5062788;28;20028;-39
2023/12/21 02:39:29;;;;;;;1.30;1.30;;;3.80;99.90;;;;;;5065461;28;20061;-39
2023/12/21 02:41:55;;;;;;;1.20;1.20;;;3.80;99.90;;;;;;5063390;28;20028;-36
2023/12/21 02:44:20;;;;;;;1.45;1.23;;;3.80;99.90;;;;;;5063564;28;20044;-37
2023/12/21 02:46:46;;;;;;;1.15;1.15;;;3.80;99.90;;;;;;5066261;28;20033;-38
2023/12/21 02:49:11;;;;;;;1.35;1.35;;;3.80;99.90;;;;;;5060728;28;20108;-39
2023/12/21 02:51:37;;;;;;;1.50;1.40;;;3.80;99.90;;;;;;5067070;28;20013;-38
2023/12/21 02:54:03;;;;;;;1.10;1.10;;;3.80;99.90;;;;;;5065020;28;20032;-36
2023/12/21 02:56:28;;;;;;;1.83;1.73;;;3.80;99.90;;;;;;5065233;28;20020;-37
2023/12/21 02:58:54;;;;;;;1.52;1.40;;;3.80;99.90;;;;;;5061532;28;20456;-36
2023/12/21 03:01:19;;;;;;;1.23;1.23;;;3.80;99.90;;;;;;5063261;28;20078;-39
2023/12/21 03:03:45;;;;;;;2.15;1.88;;;3.80;99.90;;;;;;5072153;28;20059;-39
2023/12/21 03:06:11;;;;;;;2.05;1.30;;;3.80;99.90;;;;;;5065201;28;20499;-38
2023/12/21 03:08:36;;;;;;;1.70;1.60;;;3.80;99.90;;;;;;5063486;28;20102;-38
2023/12/21 03:11:02;;;;;;;2.97;1.42;;;3.80;99.90;;;;;;5065563;28;20032;-39
2023/12/21 03:13:28;;;;;;;2.20;1.40;;;3.80;99.90;;;;;;5063912;28;20531;-38
2023/12/21 03:15:53;;;;;;;1.38;1.30;;;3.90;99.90;;;;;;5065931;28;20376;-34
2023/12/21 03:18:19;;;;;;;1.65;1.55;;;3.90;99.90;;;;;;5063593;28;20041;-39
2023/12/21 03:20:44;;;;;;;1.77;1.63;;;3.90;99.90;;;;;;5064201;28;20028;-39
2023/12/21 03:23:10;;;;;;;1.17;1.17;;;3.90;99.90;;;;;;5065385;28;20051;-40
2023/12/21 03:25:36;;;;;;;1.08;1.08;;;3.90;99.90;;;;;;5064207;28;20063;-39
2023/12/21 03:28:03;;;;;;;1.48;1.40;;;3.90;99.90;;;;;;5065896;28;20498;-37
2023/12/21 03:30:29;;;;;;;1.17;1.17;;;3.90;99.90;;;;;;5066074;28;20462;-34
2023/12/21 03:32:55;;;;;;;1.30;1.30;;;3.90;99.90;;;;;;5067985;28;20068;-36
2023/12/21 03:35:20;;;;;;;1.45;1.35;;;3.90;99.90;;;;;;5069577;28;20376;-39
2023/12/21 03:37:46;;;;;;;1.50;1.25;;;4.00;99.90;;;;;;5068996;28;20032;-38
2023/12/21 03:40:12;;;;;;;1.45;1.35;;;4.00;99.90;;;;;;5069402;28;20483;-38
2023/12/21 03:42:38;;;;;;;2.25;1.15;;;3.90;99.90;;;;;;5067483;28;20035;-38
2023/12/21 03:45:04;;;;;;;1.17;1.17;;;4.00;99.90;;;;;;5065606;28;20047;-39
2023/12/21 03:47:29;;;;;;;2.13;1.70;;;4.00;99.90;;;;;;5067352;28;20556;-39
2023/12/21 03:49:55;;;;;;;1.70;1.15;;;4.00;99.90;;;;;;5068531;28;20025;-36
2023/12/21 03:52:21;;;;;;;1.50;1.40;;;4.00;99.90;;;;;;5067382;28;20029;-39
2023/12/21 03:54:47;;;;;;;1.00;1.00;;;4.00;99.90;;;;;;5066024;28;20032;-33
2023/12/21 03:57:13;;;;;;;1.40;1.30;;;4.00;99.90;;;;;;5066484;28;20024;-40
2023/12/21 03:59:40;;;;;;;1.27;1.20;;;4.00;99.90;;;;;;5066026;28;20375;-39
2023/12/21 04:02:06;;;;;;;1.13;1.13;;;4.00;99.90;;;;;;5066776;28;20037;-41
2023/12/21 04:04:32;;;;;;;1.30;1.30;;;4.10;99.90;;;;;;5067301;28;20484;-40
2023/12/21 04:06:58;;;;;;;1.25;1.25;;;4.10;99.90;;;;;;5067611;28;20458;-38
2023/12/21 04:09:25;;;;;;;2.42;1.13;;;4.10;99.90;;;;;;5068667;28;20044;-40
2023/12/21 04:11:50;;;;;;;1.13;1.10;;;4.10;99.90;;;;;;5068153;28;20020;-40
2023/12/21 04:14:16;;;;;;;1.20;1.20;;;4.20;99.90;;;;;;5067421;28;20024;-39
2023/12/21 04:16:41;;;;;;;1.42;1.33;;;4.20;99.90;;;;;;5066089;28;20047;-35
2023/12/21 04:19:07;;;;;;;1.00;1.00;;;4.20;99.90;;;;;;5068453;28;20039;-41
2023/12/21 04:21:33;;;;;;;1.63;1.50;;;4.20;99.90;;;;;;5068246;28;20064;-39
2023/12/21 04:23:59;;;;;;;1.10;1.10;;;4.30;99.90;;;;;;5064396;28;20060;-42
2023/12/21 04:26:24;;;;;;;1.65;1.13;;;4.30;99.90;;;;;;5065215;28;20091;-38
2023/12/21 04:28:50;;;;;;;1.95;1.38;;;4.30;99.90;;;;;;5065597;28;20036;-40
2023/12/21 04:31:20;;;;;;;1.10;1.10;;;4.30;99.90;;;;;;5062453;28;20128;-39
2023/12/21 04:33:50;;;;;;;1.13;1.13;;;4.30;99.90;;;;;;5066957;28;20025;-40
2023/12/21 04:36:16;;;;;;;1.33;1.23;;;4.40;99.90;;;;;;5064256;28;20055;-41
2023/12/21 04:38:42;;;;;;;1.40;1.30;;;4.40;99.90;;;;;;5064738;28;20033;-37
2023/12/21 04:41:08;;;;;;;1.23;1.20;;;4.40;99.90;;;;;;5067301;28;20039;-41
2023/12/21 04:43:33;;;;;;;1.00;1.00;;;4.40;99.90;;;;;;5063918;28;20020;-38
2023/12/21 04:45:59;;;;;;;0.93;0.93;;;4.40;99.90;;;;;;5064740;28;20078;-38
2023/12/21 04:48:24;;;;;;;1.05;1.05;;;4.40;99.90;;;;;;5067085;28;20555;-40
2023/12/21 04:50:50;;;;;;;1.00;1.00;;;4.40;99.90;;;;;;5065159;28;20024;-40
2023/12/21 04:53:16;;;;;;;1.13;1.10;;;4.40;99.90;;;;;;5065476;28;20116;-39
2023/12/21 04:55:41;;;;;;;1.00;1.00;;;4.40;99.90;;;;;;5064937;28;20095;-35
2023/12/21 04:58:07;;;;;;;1.10;1.10;;;4.40;99.90;;;;;;5067498;28;20106;-36
2023/12/21 05:00:33;;;;;;;1.02;1.02;;;4.40;99.90;;;;;;5067190;28;20033;-35
2023/12/21 05:02:58;;;;;;;1.08;1.08;;;4.50;99.90;;;;;;5066357;28;20494;-35
2023/12/21 05:05:24;;;;;;;1.30;0.93;;;4.40;99.90;;;;;;5067323;28;20074;-32
2023/12/21 05:07:50;;;;;;;0.93;0.93;;;4.50;99.90;;;;;;5065156;28;20391;-33
2023/12/21 05:10:15;;;;;;;1.00;1.00;;;4.50;99.90;;;;;;5064595;28;20032;-35
2023/12/21 05:12:42;;;;;;;1.35;1.25;;;4.50;99.90;;;;;;5065299;28;20553;-38
2023/12/21 05:15:08;;;;;;;1.05;1.05;;;4.50;99.90;;;;;;5063783;28;20032;-33
2023/12/21 05:17:34;;;;;;;1.20;1.10;;;4.50;99.90;;;;;;5066603;28;20025;-32
2023/12/21 05:20:00;;;;;;;0.98;0.98;;;4.50;99.90;;;;;;5065648;28;20063;-34
2023/12/21 05:22:26;;;;;;;1.10;1.10;;;4.50;99.90;;;;;;5064252;28;20068;-34
2023/12/21 05:24:51;;;;;;;1.00;1.00;;;4.50;99.90;;;;;;5063444;28;20028;-32
2023/12/21 05:27:17;;;;;;;1.02;1.02;;;4.60;99.90;;;;;;5062791;28;20040;-34
2023/12/21 05:29:43;;;;;;;0.90;0.90;;;4.60;99.90;;;;;;5065752;28;20043;-38
2023/12/21 05:32:09;;;;;;;0.90;0.90;;;4.60;99.90;;;;;;5064677;28;20447;-33
2023/12/21 05:34:34;;;;;;;1.08;1.02;;;4.60;99.90;;;;;;5066055;28;20073;-36
2023/12/21 05:37:00;;;;;;;1.13;1.13;;;4.60;99.90;;;;;;5066483;28;20033;-35
2023/12/21 05:39:27;;;;;;;1.02;1.02;;;4.60;99.90;;;;;;5065434;28;20033;-33
2023/12/21 05:41:53;;;;;;;1.35;1.25;;;4.70;99.90;;;;;;5065212;28;20544;-32
2023/12/21 05:44:19;;;;;;;1.00;1.00;;;4.70;99.90;;;;;;5066544;28;20115;-34
2023/12/21 05:46:44;;;;;;;0.98;0.98;;;4.70;99.90;;;;;;5065505;28;20169;-35
2023/12/21 05:49:10;;;;;;;0.93;0.93;;;4.70;99.90;;;;;;5061108;28;20433;-34
2023/12/21 05:51:36;;;;;;;1.13;1.10;;;4.70;99.90;;;;;;5065393;28;20028;-33
2023/12/21 05:54:03;;;;;;;1.00;1.00;;;4.70;99.90;;;;;;5064022;28;20546;-32
2023/12/21 05:56:29;;;;;;;1.67;1.23;;;4.70;99.90;;;;;;5065838;28;20399;-33
2023/12/21 05:58:55;;;;;;;0.98;0.98;;;4.80;99.90;;;;;;5061217;28;20118;-35
2023/12/21 06:01:20;;;;;;;1.30;1.30;;;4.80;99.90;;;;;;5065104;28;20036;-32
2023/12/21 06:03:46;;;;;;;1.08;1.08;;;4.80;99.90;;;;;;5064977;28;20043;-33
2023/12/21 06:06:13;;;;;;;1.00;1.00;;;4.80;99.90;;;;;;5065120;28;20028;-35
2023/12/21 06:08:39;;;;;;;2.83;1.42;;;4.80;99.90;;;;;;5066561;28;20039;-34
2023/12/21 06:11:06;;;;;;;2.72;1.20;;;4.80;99.90;;;;;;5065023;28;20063;-33
2023/12/21 06:13:32;;;;;;;1.50;1.40;;;4.80;99.90;;;;;;5063499;28;20027;-36
2023/12/21 06:15:58;;;;;;;2.70;1.00;;;4.80;99.90;;;;;;5064574;28;20027;-33
2023/12/21 06:18:24;;;;;;;3.15;1.73;;;4.90;99.90;;;;;;5064517;28;20024;-32
2023/12/21 06:20:49;;;;;;;4.03;3.10;;;4.90;99.90;;;;;;5060515;28;20396;-33
2023/12/21 06:23:15;;;;;;;13.68;7.03;;;4.90;99.90;;;;;;5064772;28;20507;-33
2023/12/21 06:25:40;;;;;;;5.93;2.95;;;5.00;99.90;;;;;;5060695;28;20123;-35
2023/12/21 06:28:06;;;;;;;11.18;4.35;;;5.00;99.90;;;;;;5062868;28;20031;-30
2023/12/21 06:30:31;;;;;;;14.02;5.75;;;5.00;99.90;;;;;;5060976;28;20743;-33
2023/12/21 06:32:57;;;;;;;22.52;8.48;;;5.00;99.90;;;;;;5063739;28;20117;-34
2023/12/21 06:35:23;;;;;;;38.08;17.23;;;5.00;99.90;;;;;;5063943;28;20036;-35
2023/12/21 06:37:48;;;;;;;13.13;5.30;;;5.00;99.90;;;;;;5060329;28;20119;-34
2023/12/21 06:40:14;;;;;;;50.92;20.23;;;5.10;99.90;;;;;;5065007;28;20040;-32
2023/12/21 06:42:39;;;;;;;87.05;32.60;;;5.10;99.90;;;;;;5066452;28;20039;-31
2023/12/21 06:45:06;;;;;;;41.90;15.55;;;5.10;99.90;;;;;;5063017;28;20060;-36
2023/12/21 06:47:31;;;;;;;5.25;3.75;;;5.10;99.90;;;;;;5061817;28;20029;-33
2023/12/21 06:49:57;;;;;;;4.13;3.08;;;5.20;99.90;;;;;;5055766;28;20040;-31
2023/12/21 06:52:22;;;;;;;3.47;3.17;;;5.10;99.90;;;;;;5062249;28;20025;-37
2023/12/21 06:54:48;;;;;;;1.70;1.60;;;5.20;99.90;;;;;;5055240;28;20037;-33
2023/12/21 06:57:15;;;;;;;1.90;1.80;;;5.20;99.90;;;;;;5065263;28;20435;-35
2023/12/21 06:59:41;;;;;;;1.42;1.42;;;5.30;99.90;;;;;;5057825;28;20025;-36
2023/12/21 07:02:07;;;;;;;1.42;1.33;;;5.30;99.90;;;;;;5063290;28;20036;-36
2023/12/21 07:04:33;;;;;;;2.63;1.20;;;5.30;99.90;;;;;;5060923;28;20760;-32
2023/12/21 07:06:58;;;;;;;0.90;0.90;;;5.30;99.90;;;;;;5066848;28;20063;-31
2023/12/21 07:09:24;;;;;;;1.35;1.25;;;5.40;99.90;;;;;;5067198;28;20032;-33
2023/12/21 07:11:49;;;;;;;0.80;0.80;;;5.40;99.90;;;;;;5067922;28;20029;-32
2023/12/21 07:14:15;;;;;;;1.20;1.20;;;5.40;99.90;;;;;;5065459;28;20033;-35
2023/12/21 07:16:41;;;;;;;1.00;1.00;;;5.40;99.90;;;;;;5067330;28;20107;-38
2023/12/21 07:19:06;;;;;;;0.90;0.90;;;5.40;99.90;;;;;;5064135;28;20391;-41
2023/12/21 07:21:32;;;;;;;1.25;1.20;;;5.40;99.90;;;;;;5065133;28;20561;-37
2023/12/21 07:23:58;;;;;;;1.00;0.95;;;5.40;99.90;;;;;;5063561;28;20456;-38
2023/12/21 07:26:24;;;;;;;1.02;1.02;;;5.50;99.90;;;;;;5064413;28;20070;-38
2023/12/21 07:28:50;;;;;;;1.15;1.10;;;5.50;99.90;;;;;;5066087;28;20068;-41
2023/12/21 07:31:17;;;;;;;0.93;0.93;;;5.50;99.90;;;;;;5063369;28;20491;-39
2023/12/21 07:33:43;;;;;;;1.55;0.90;;;5.50;99.90;;;;;;5063764;28;20103;-41
2023/12/21 07:36:08;;;;;;;2.40;1.00;;;5.50;99.90;;;;;;5063150;28;20115;-42
2023/12/21 07:38:35;;;;;;;1.10;1.10;;;5.60;99.90;;;;;;5064308;28;20024;-39
2023/12/21 07:41:00;;;;;;;0.90;0.90;;;5.60;99.90;;;;;;5067678;28;20060;-41
2023/12/21 07:43:26;;;;;;;0.90;0.90;;;5.60;99.90;;;;;;5064573;28;20025;-40
2023/12/21 07:45:52;;;;;;;0.90;0.90;;;5.60;99.90;;;;;;5065857;28;20037;-41
2023/12/21 07:48:18;;;;;;;1.40;1.30;;;5.60;99.90;;;;;;5063761;28;20036;-32
2023/12/21 07:50:43;;;;;;;0.82;0.82;;;5.60;99.90;;;;;;5063104;28;20419;-35
2023/12/21 07:53:09;;;;;;;0.80;0.80;;;5.70;99.90;;;;;;5064053;28;20111;-39
2023/12/21 07:55:34;;;;;;;0.90;0.90;;;5.70;99.90;;;;;;5067084;28;20016;-41
2023/12/21 07:58:00;;;;;;;1.17;1.08;;;5.70;99.90;;;;;;5066548;28;20028;-40
2023/12/21 08:00:26;;;;;;;1.50;1.25;;;5.80;99.90;;;;;;5064504;28;20032;-39
2023/12/21 08:02:52;;;;;;;1.05;1.05;;;5.80;99.90;;;;;;5064269;28;20028;-39
2023/12/21 08:05:19;;;;;;;1.00;1.00;;;5.80;99.90;;;;;;5066695;28;20039;-33
2023/12/21 08:07:44;;;;;;;0.90;0.90;;;5.80;99.90;;;;;;5066802;28;20074;-34
2023/12/21 08:10:10;;;;;;;2.72;1.10;;;5.80;99.90;;;;;;5069429;28;20028;-41
2023/12/21 08:12:36;;;;;;;2.72;0.95;;;5.90;99.90;;;;;;5066411;28;20021;-37
2023/12/21 08:15:02;;;;;;;0.80;0.80;;;5.90;99.90;;;;;;5065071;28;20046;-42
2023/12/21 08:17:28;;;;;;;0.90;0.90;;;6.00;99.90;;;;;;5067882;28;20025;-38
2023/12/21 08:19:55;;;;;;;0.80;0.80;;;6.00;99.90;;;;;;5063474;28;20076;-36
2023/12/21 08:22:21;;;;;;;0.90;0.90;;;6.00;99.90;;;;;;5067398;28;20526;-39
2023/12/21 08:24:46;;;;;;;0.73;0.73;;;6.00;99.90;;;;;;5062965;28;20043;-40
2023/12/21 08:27:13;;;;;;;1.20;1.10;;;6.10;99.90;;;;;;5068675;28;20071;-40
2023/12/21 08:29:39;;;;;;;1.00;0.90;;;6.00;99.90;;;;;;5067315;28;20036;-41
2023/12/21 08:32:05;;;;;;;0.90;0.90;;;6.10;99.90;;;;;;5063484;28;20494;-40
2023/12/21 08:34:31;;;;;;;0.98;0.98;;;6.10;99.90;;;;;;5068072;28;20029;-40
2023/12/21 08:36:57;;;;;;;1.20;1.10;;;6.10;99.90;;;;;;5062588;28;20028;-36
2023/12/21 08:39:24;;;;;;;1.42;1.10;;;6.20;99.90;;;;;;5068721;28;20033;-39
2023/12/21 08:41:50;;;;;;;0.90;0.90;;;6.20;99.90;;;;;;5067577;28;20036;-41
2023/12/21 08:44:15;;;;;;;1.00;1.00;;;6.20;99.90;;;;;;5065992;28;20102;-39
2023/12/21 08:46:43;;;;;;;1.08;1.05;;;6.30;99.90;;;;;;5067666;28;20044;-35
2023/12/21 08:49:12;;;;;;;1.98;1.08;;;6.30;99.90;;;;;;5067148;28;20463;-40
2023/12/21 08:51:38;;;;;;;0.80;0.80;;;6.30;99.90;;;;;;5067022;28;20469;-42
2023/12/21 08:54:05;;;;;;;1.00;1.00;;;6.30;99.90;;;;;;5065483;28;20078;-40
2023/12/21 08:56:33;;;;;;;1.40;0.95;;;6.40;99.90;;;;;;5065338;28;20070;-41
2023/12/21 08:59:00;;;;;;;1.60;0.90;;;6.40;99.90;;;;;;5065788;28;20487;-41
2023/12/21 09:01:25;;;;;;;0.90;0.90;;;6.40;99.90;;;;;;5065205;28;20483;-36
2023/12/21 09:03:51;;;;;;;1.00;1.00;;;6.50;99.90;;;;;;5064398;28;20050;-39
2023/12/21 09:06:17;;;;;;;1.25;0.70;;;6.50;99.90;;;;;;5066900;28;20032;-41
2023/12/21 09:08:42;;;;;;;4.47;0.93;;;6.50;99.90;;;;;;5063663;28;20043;-34
2023/12/21 09:11:08;;;;;;;0.70;0.70;;;6.60;99.90;;;;;;5066157;28;20060;-42
2023/12/21 09:13:33;;;;;;;0.80;0.80;;;6.60;99.90;;;;;;5068409;28;20046;-40
2023/12/21 09:15:59;;;;;;;0.80;0.80;;;6.60;99.90;;;;;;5067759;28;20048;-42
2023/12/21 09:18:24;;;;;;;0.80;0.80;;;6.70;99.90;;;;;;5064343;28;20039;-39
2023/12/21 09:20:50;;;;;;;1.00;0.80;;;6.70;99.90;;;;;;5068194;28;20067;-40
2023/12/21 09:23:15;;;;;;;0.70;0.70;;;6.70;99.90;;;;;;5065210;28;20073;-40
2023/12/21 09:25:41;;;;;;;0.77;0.77;;;6.70;99.90;;;;;;5066389;28;20115;-36
2023/12/21 09:28:07;;;;;;;0.70;0.70;;;6.70;99.90;;;;;;5063590;28;20442;-38
2023/12/21 09:30:32;;;;;;;0.93;0.90;;;6.70;99.90;;;;;;5067520;28;20128;-40
2023/12/21 09:32:59;;;;;;;0.85;0.85;;;6.80;99.90;;;;;;5064626;28;20404;-42
2023/12/21 09:35:24;;;;;;;0.70;0.70;;;6.90;99.90;;;;;;5067677;28;20035;-35
2023/12/21 09:37:50;;;;;;;0.70;0.70;;;6.80;99.90;;;;;;5064784;28;20492;-40
2023/12/21 09:40:16;;;;;;;0.75;0.75;;;6.80;99.90;;;;;;5066114;28;20086;-35
2023/12/21 09:42:49;;;;;;;0.77;0.77;;;6.80;99.90;;;;;;5068104;28;20028;-34
2023/12/21 09:45:16;;;;;;;0.80;0.80;;;6.80;99.90;;;;;;5066168;28;20472;-36
2023/12/21 09:47:43;;;;;;;1.23;1.10;;;6.80;99.90;;;;;;5065669;28;20423;-38
2023/12/21 09:50:09;;;;;;;0.90;0.90;;;6.90;99.90;;;;;;5067962;28;20032;-42
2023/12/21 09:52:38;;;;;;;1.77;1.67;;;6.90;99.90;;;;;;5067901;28;20081;-34
2023/12/21 09:55:06;;;;;;;1.77;1.67;;;6.90;99.90;;;;;;5068148;28;20028;-39
2023/12/21 09:57:35;;;;;;;2.65;1.88;;;6.90;99.90;;;;;;5064811;28;20075;-39
2023/12/21 10:00:02;;;;;;;2.17;1.70;;;6.90;99.90;;;;;;5065515;28;20036;-41
2023/12/21 10:02:30;;;;;;;4.20;3.35;;;6.90;99.90;;;;;;5062863;28;20035;-41
2023/12/21 10:04:56;;;;;;;;;;;6.90;99.90;;;;;;5079271;28;20040;-38
2023/12/21 10:07:22;;;;;;;1.23;1.20;;;6.90;99.90;;;;;;5064381;28;20015;-39
2023/12/21 10:09:49;;;;;;;4.03;3.33;;;6.90;99.90;;;;;;5064577;28;20133;-41
2023/12/21 10:12:14;;;;;;;3.15;2.30;;;7.00;99.90;;;;;;5063044;28;20028;-41
2023/12/21 10:14:40;;;;;;;3.13;2.22;;;7.00;99.90;;;;;;5062424;28;20030;-41
2023/12/21 10:17:10;;;;;;;3.95;2.60;;;7.00;99.90;;;;;;5062719;28;20029;-40
2023/12/21 10:19:36;;;;;;;2.13;1.83;;;7.00;99.90;;;;;;5064448;28;20033;-41
2023/12/21 10:22:02;;;;;;;2.08;1.67;;;7.00;99.90;;;;;;5066987;28;20530;-40
2023/12/21 10:24:28;;;;;;;3.42;2.60;;;7.10;99.90;;;;;;5063524;28;20036;-38
2023/12/21 10:26:54;;;;;;;7.28;3.67;;;7.10;99.90;;;;;;5059563;28;20038;-34
2023/12/21 10:29:20;;;;;;;1.50;1.40;;;7.10;99.90;;;;;;5064961;28;20074;-31
2023/12/21 10:31:47;;;;;;;2.47;2.10;;;7.20;99.90;;;;;;5064080;28;20684;-35
2023/12/21 10:34:13;;;;;;;2.10;1.88;;;7.10;99.90;;;;;;5063107;28;20028;-31
2023/12/21 10:36:40;;;;;;;4.50;1.33;;;7.10;99.90;;;;;;5064109;28;20025;-34
2023/12/21 10:39:07;;;;;;;7.15;4.78;;;7.10;99.90;;;;;;5063964;28;20100;-32
2023/12/21 10:41:32;;;;;;;1.25;1.23;;;7.10;99.90;;;;;;5066448;28;20021;-34
2023/12/21 10:43:59;;;;;;;1.52;1.33;;;7.10;99.90;;;;;;5060160;28;20457;-31
2023/12/21 10:46:30;;;;;;;5.97;3.53;;;7.10;99.90;;;;;;5062271;28;20039;-31
2023/12/21 10:48:59;;;;;;;1.98;1.30;;;7.20;99.90;;;;;;5061968;28;20077;-35
2023/12/21 10:51:35;;;;;;;2.00;1.20;;;7.20;99.90;;;;;;5066728;28;20033;-33
2023/12/21 10:54:02;;;;;;;1.25;1.15;;;7.20;99.90;;;;;;5062216;28;20033;-34
2023/12/21 10:56:28;;;;;;;1.25;1.23;;;7.30;99.90;;;;;;5065175;28;20033;-33
2023/12/21 10:58:55;;;;;;;1.90;1.70;;;7.30;99.90;;;;;;5062061;28;20086;-33
2023/12/21 11:01:24;;;;;;;6.80;3.58;;;7.30;99.90;;;;;;5064816;28;20032;-31
2023/12/21 11:03:52;;;;;;;3.40;2.40;;;7.20;99.90;;;;;;5059946;28;20040;-32
2023/12/21 11:06:18;;;;;;;7.90;4.55;;;7.30;99.90;;;;;;5075136;28;20535;-32
2023/12/21 11:08:44;;;;;;;4.68;2.08;;;7.30;99.90;;;;;;5063801;28;20039;-31
2023/12/21 11:11:15;;;;;;;4.68;3.15;;;7.30;99.90;;;;;;5063276;28;20028;-31
2023/12/21 11:13:44;;;;;;;9.77;4.93;;;7.30;99.90;;;;;;5058517;28;20387;-32
2023/12/21 11:16:10;;;;;;;;;;;7.30;99.90;;;;;;5063927;28;20028;-33
2023/12/21 11:18:38;;;;;;;1.20;1.10;;;7.40;99.90;;;;;;5063476;28;20013;-33
2023/12/21 11:21:05;;;;;;;0.80;0.80;;;7.40;99.90;;;;;;5065250;28;20048;-35
2023/12/21 11:23:39;;;;;;;0.80;0.80;;;7.40;99.90;;;;;;5063283;28;20032;-37
2023/12/21 11:26:06;;;;;;;0.68;0.68;;;7.40;99.90;;;;;;5068304;28;20048;-31
2023/12/21 11:28:34;;;;;;;0.80;0.80;;;7.40;99.90;;;;;;5063481;28;20044;-34
2023/12/21 11:31:14;;;;;;;1.30;1.20;;;7.40;99.90;;;;;;5063457;28;20689;-33
2023/12/21 11:33:40;;;;;;;2.22;1.77;;;7.40;99.90;;;;;;5058951;28;20066;-32
2023/12/21 11:36:09;;;;;;;2.10;1.92;;;7.40;99.90;;;;;;5063248;28;20025;-34
2023/12/21 11:38:47;;;;;;;0.77;0.77;;;7.50;99.90;;;;;;5063784;28;20458;-39
2023/12/21 11:41:14;;;;;;;1.30;1.30;;;7.50;99.90;;;;;;5061938;28;20043;-39
2023/12/21 11:43:41;;;;;;;4.45;3.58;;;7.60;99.90;;;;;;5063956;28;20032;-37
2023/12/21 11:46:10;;;;;;;1.75;1.65;;;7.60;99.90;;;;;;5064961;28;20406;-38
2023/12/21 11:48:37;;;;;;;1.10;1.00;;;7.50;99.90;;;;;;5063975;28;20032;-38
2023/12/21 11:51:04;;;;;;;0.60;0.60;;;7.50;99.90;;;;;;5062814;28;20118;-37
2023/12/21 11:53:29;;;;;;;0.85;0.85;;;7.50;99.90;;;;;;5067940;28;20086;-35
2023/12/21 11:55:55;;;;;;;4.95;1.73;;;7.60;99.90;;;;;;5068696;28;20024;-34
2023/12/21 11:58:23;;;;;;;1.30;1.17;;;7.50;99.90;;;;;;5068044;28;20492;-32
2023/12/21 12:00:51;;;;;;;0.80;0.80;;;7.60;99.90;;;;;;5066150;28;20482;-33
2023/12/21 12:03:18;;;;;;;0.80;0.80;;;7.60;99.90;;;;;;5070324;28;20868;-35
2023/12/21 12:05:44;;;;;;;0.70;0.70;;;7.60;99.90;;;;;;5067190;28;20076;-33
2023/12/21 12:08:10;;;;;;;0.70;0.70;;;7.70;99.90;;;;;;5067737;28;20024;-31
2023/12/21 12:10:36;;;;;;;0.70;0.70;;;7.70;99.90;;;;;;5066545;28;20085;-31
2023/12/21 12:13:03;;;;;;;1.75;0.80;;;7.70;99.90;;;;;;5064698;28;20032;-30
2023/12/21 12:15:30;;;;;;;0.77;0.70;;;7.70;99.90;;;;;;5069649;28;20039;-31
2023/12/21 12:17:56;;;;;;;0.60;0.60;;;7.70;99.90;;;;;;5062611;28;20090;-29
2023/12/21 12:20:22;;;;;;;0.85;0.85;;;7.80;99.90;;;;;;5060747;28;20032;-30
2023/12/21 12:22:51;;;;;;;1.00;1.00;;;7.70;99.90;;;;;;5065390;28;20170;-31
2023/12/21 12:25:17;;;;;;;1.02;0.90;;;7.70;99.90;;;;;;5068936;28;20043;-34
2023/12/21 12:27:43;;;;;;;0.77;0.77;;;7.70;99.90;;;;;;5066530;28;20530;-33
2023/12/21 12:30:11;;;;;;;0.80;0.80;;;7.70;99.90;;;;;;5063961;28;20078;-30
2023/12/21 12:32:36;;;;;;;0.80;0.80;;;7.70;99.90;;;;;;5063025;28;20028;-36
2023/12/21 12:35:02;;;;;;;0.70;0.70;;;7.60;99.90;;;;;;5063028;28;20028;-33
2023/12/21 12:37:30;;;;;;;0.90;0.90;;;7.70;99.90;;;;;;5069307;28;20036;-28
2023/12/21 12:39:56;;;;;;;0.70;0.70;;;7.70;99.90;;;;;;5066089;28;20024;-31
2023/12/21 12:42:22;;;;;;;2.03;0.65;;;7.70;99.90;;;;;;5067665;28;20614;-31
2023/12/21 12:44:53;;;;;;;0.90;0.90;;;7.70;99.90;;;;;;5066721;28;20032;-34
2023/12/21 12:47:22;;;;;;;0.70;0.70;;;7.70;99.90;;;;;;5063743;28;20480;-29
2023/12/21 12:49:47;;;;;;;0.90;0.80;;;7.70;99.90;;;;;;5068021;28;20036;-33
2023/12/21 12:52:16;;;;;;;0.60;0.60;;;7.60;99.90;;;;;;5063786;28;20763;-33